Aviation Digital Data Service (ADDS)

Output produced by METARs form (0833 UTC 13 August 2022)
found at http://www.aviationweather.gov/metar/data/
 
METAR text: EHKD 130825Z AUTO 09006KT 050V130 9999 NCD 25/15 Q1017 BLU NOSIG
Conditions at: EHKD (DE KOOY (NAVY) , NL) observed 0825 UTC 13 August 2022
Temperature: 25.0°C (77°F)
Dewpoint: 15.0°C (59°F) [RH = 54%]
Pressure (altimeter): 30.03 inches Hg (1017.0 mb)
Winds: from the E (90 degrees) at 7 MPH (6 knots; 3.1 m/s)
Visibility: 6 or more miles (10+ km)
Ceiling: at least 12,000 feet AGL
Clouds: sky clear below 12,000 feet AGL
Weather: no significant weather observed at this time

METAR text: EHKD 130755Z AUTO 09006KT 050V130 9999 NCD 24/16 Q1017 BLU NOSIG
Conditions at: EHKD (DE KOOY (NAVY) , NL) observed 0755 UTC 13 August 2022
Temperature: 24.0°C (75°F)
Dewpoint: 16.0°C (61°F) [RH = 61%]
Pressure (altimeter): 30.03 inches Hg (1017.0 mb)
Winds: from the E (90 degrees) at 7 MPH (6 knots; 3.1 m/s)
Visibility: 6 or more miles (10+ km)
Ceiling: at least 12,000 feet AGL
Clouds: sky clear below 12,000 feet AGL
Weather: no significant weather observed at this time

Forecast for: EHKD (DE KOOY (NAVY) , NL)
Text: TAF EHKD 130411Z 1305/1317 11006KT CAVOK
Forecast period: 0500 to 1700 UTC 13 August 2022
Forecast type: FROM: standard forecast or significant change
Winds: from the ESE (110 degrees) at 7 MPH (6 knots; 3.1 m/s)
Visibility: 6 or more miles (10+ km)
Ceiling: unknown
Clouds: missing
Weather: NSW  (no significant weather)
Text: TEMPO 1305/1310 13006KT
Forecast period: 0500 to 1000 UTC 13 August 2022
Forecast type: TEMPORARY: The following changes expected for less than half the time period
Winds: from the SE (130 degrees) at 7 MPH (6 knots; 3.1 m/s)
Visibility: missing
Ceiling: unknown
Clouds: missing
Weather: no significant weather forecast for this period
Text: PROB30
Forecast period: 1300 to 1600 UTC 13 August 2022
Forecast type: TEMPORARY: The following changes expected for less than half the time period
Winds: from the SE (140 degrees) at 9 MPH (8 knots; 4.1 m/s)
Visibility: missing
Ceiling: unknown
Clouds: missing
Weather: no significant weather forecast for this period